Time;durP1;ratioP1;P1;durP2;ratioP2;P2;SDS_P1;SDS_P2;PMS_P1;PMS_P2;Temp;Humidity;BMP_temperature;BMP_pressure;BME280_temperature;BME280_humidity;BME280_pressure;Samples;Min_cycle;Max_cycle;Signal;HPM_P1;HPM_P2
2022/03/19 00:01:49;;;;;;;13.25;7.60;;;;;;;6.36;77.04;104305.84;5071613;28;20029;-71
2022/03/19 00:04:14;;;;;;;16.33;8.30;;;;;;;6.31;76.84;104302.63;5071939;28;20644;-72
2022/03/19 00:06:40;;;;;;;15.95;8.13;;;;;;;6.29;77.06;104295.69;5071801;28;20028;-71
2022/03/19 00:09:06;;;;;;;16.40;8.45;;;;;;;6.28;77.07;104300.09;5070457;28;20061;-71
2022/03/19 00:11:32;;;;;;;18.10;9.20;;;;;;;6.18;77.11;104305.97;5071695;28;20082;-71
2022/03/19 00:13:57;;;;;;;14.77;7.75;;;;;;;6.18;77.79;104306.84;5071650;28;20127;-71
2022/03/19 00:16:24;;;;;;;14.75;7.72;;;;;;;6.15;77.62;104299.91;5071726;28;20033;-71
2022/03/19 00:18:49;;;;;;;18.75;8.73;;;;;;;6.12;77.87;104304.53;5071867;28;20115;-71
2022/03/19 00:21:15;;;;;;;18.00;8.23;;;;;;;6.04;78.21;104294.31;5071541;28;20154;-71
2022/03/19 00:23:41;;;;;;;18.67;10.55;;;;;;;6.05;78.32;104301.34;5071681;28;20373;-71
2022/03/19 00:26:07;;;;;;;14.55;8.30;;;;;;;5.98;78.18;104299.97;5071914;28;20051;-71
2022/03/19 00:28:33;;;;;;;17.27;9.00;;;;;;;5.98;78.35;104299.97;5073302;28;20090;-71
2022/03/19 00:30:58;;;;;;;21.55;9.02;;;;;;;5.92;78.71;104295.81;5073333;28;20498;-71
2022/03/19 00:33:24;;;;;;;17.48;8.27;;;;;;;5.86;79.41;104285.53;5071447;28;20028;-71
2022/03/19 00:35:49;;;;;;;17.48;9.13;;;;;;;5.88;79.63;104293.41;5071445;28;20035;-71
2022/03/19 00:38:16;;;;;;;16.52;8.93;;;;;;;5.87;79.40;104292.56;5071112;28;20032;-71
2022/03/19 00:40:41;;;;;;;20.60;9.30;;;;;;;5.87;79.15;104287.25;5070990;28;20033;-71
2022/03/19 00:43:06;;;;;;;17.20;9.68;;;;;;;5.85;79.31;104291.78;5070839;28;20047;-71
2022/03/19 00:45:32;;;;;;;19.65;9.57;;;;;;;5.83;79.28;104295.44;5070946;28;20036;-71
2022/03/19 00:47:57;;;;;;;18.77;8.38;;;;;;;5.77;79.86;104282.53;5071049;28;20376;-71
2022/03/19 00:50:23;;;;;;;18.38;9.88;;;;;;;5.78;79.66;104292.16;5071141;28;20123;-71
2022/03/19 00:52:48;;;;;;;17.42;9.38;;;;;;;5.71;79.65;104279.25;5071035;28;20502;-71
2022/03/19 00:55:14;;;;;;;18.27;10.13;;;;;;;5.74;80.34;104282.66;5069739;28;20059;-71
2022/03/19 00:57:40;;;;;;;16.27;8.85;;;;;;;5.76;80.06;104280.78;5070844;28;20029;-71
2022/03/19 01:00:06;;;;;;;24.23;11.68;;;;;;;5.76;80.09;104278.16;5070819;28;20025;-71
2022/03/19 01:02:32;;;;;;;19.27;10.70;;;;;;;5.75;80.78;104284.38;5070225;28;20062;-71
2022/03/19 01:04:57;;;;;;;20.85;10.30;;;;;;;5.76;80.78;104280.78;5069026;28;20154;-71
2022/03/19 01:07:22;;;;;;;17.95;9.55;;;;;;;5.76;81.16;104276.34;5070452;28;20183;-71
2022/03/19 01:09:48;;;;;;;21.80;11.13;;;;;;;5.76;81.17;104288.75;5070620;28;20032;-71
2022/03/19 01:12:13;;;;;;;23.65;12.20;;;;;;;5.76;81.70;104288.75;5070458;28;20036;-71
2022/03/19 01:14:38;;;;;;;22.35;11.63;;;;;;;5.74;81.50;104282.66;5070451;28;20032;-71
2022/03/19 01:17:04;;;;;;;23.65;11.90;;;;;;;5.74;81.78;104282.66;5069246;28;20025;-71
2022/03/19 01:22:13;;;;;;;21.98;11.20;;;;;;;5.68;82.36;104260.84;5070646;28;20071;-71
2022/03/19 01:24:38;;;;;;;21.67;11.80;;;;;;;5.71;82.77;104271.31;5068562;28;20036;-71
2022/03/19 01:27:04;;;;;;;20.27;10.43;;;;;;;5.72;82.98;104272.16;5070312;28;20080;-71
2022/03/19 01:29:29;;;;;;;20.17;11.82;;;;;;;5.76;82.30;104283.44;5070312;28;20052;-71
2022/03/19 01:31:54;;;;;;;25.65;11.80;;;;;;;5.74;83.41;104275.59;5070279;28;20036;-71
2022/03/19 01:34:20;;;;;;;22.38;11.38;;;;;;;5.73;82.33;104273.88;5068855;28;20484;-71
2022/03/19 01:36:45;;;;;;;25.95;11.02;;;;;;;5.75;82.55;104287.03;5070182;28;20107;-71
2022/03/19 01:39:10;;;;;;;22.08;11.85;;;;;;;5.67;83.03;104285.63;5070090;28;20024;-71
2022/03/19 01:41:40;;;;;;;24.67;11.60;;;;;;;5.68;83.10;104281.19;5067978;28;20035;-71
2022/03/19 01:44:06;;;;;;;20.38;11.23;;;;;;;5.61;83.70;104279.81;5069949;28;20066;-71
2022/03/19 01:47:01;;;;;;;22.05;11.95;;;;;;;5.64;84.08;104279.66;5068508;28;20036;-71
2022/03/19 01:49:28;;;;;;;19.83;11.25;;;;;;;5.64;84.05;104279.66;5052120;28;20063;-71
2022/03/19 01:51:54;;;;;;;19.40;11.13;;;;;;;5.61;84.13;104271.88;5069894;28;20035;-71
2022/03/19 01:54:49;;;;;;;23.90;11.90;;;;;;;5.61;83.79;104278.03;5069940;28;20017;-71
2022/03/19 01:57:19;;;;;;;21.58;11.63;;;;;;;5.60;84.57;104275.44;5068534;28;20523;-71
2022/03/19 01:59:44;;;;;;;18.92;10.32;;;;;;;5.57;84.86;104272.94;5069600;28;20029;-71
2022/03/19 02:02:11;;;;;;;20.02;10.88;;;;;;;5.56;84.83;104269.47;5069756;28;20437;-71
2022/03/19 02:04:38;;;;;;;20.42;10.98;;;;;;;5.57;85.30;104270.31;5069803;28;20039;-71
2022/03/19 02:07:07;;;;;;;24.05;12.27;;;;;;;5.52;84.84;104265.25;5069373;28;20032;-71
2022/03/19 02:09:33;;;;;;;22.33;10.15;;;;;;;5.52;84.78;104267.88;5069764;28;20395;-71
2022/03/19 02:11:59;;;;;;;23.95;13.07;;;;;;;5.46;85.32;104260.28;5069738;28;20024;-71
2022/03/19 02:14:25;;;;;;;21.23;10.88;;;;;;;5.42;85.57;104258.69;5069698;28;20124;-71
2022/03/19 02:16:51;;;;;;;21.95;11.13;;;;;;;5.39;86.14;104253.56;5070526;28;20056;-71
2022/03/19 02:19:16;;;;;;;20.60;10.60;;;;;;;5.40;86.17;104264.09;5072276;28;20498;-71
2022/03/19 02:21:48;;;;;;;21.90;11.82;;;;;;;5.38;86.02;104255.38;5071511;28;20025;-71
2022/03/19 02:27:00;;;;;;;25.88;12.38;;;;;;;5.34;86.19;104242.34;5069653;28;19978;-71
2022/03/19 02:29:26;;;;;;;21.88;11.35;;;;;;;5.25;86.03;104236.59;5069520;28;20502;-71
2022/03/19 02:31:54;;;;;;;31.48;10.45;;;;;;;5.28;86.38;104241.75;5069494;28;20037;-71
2022/03/19 02:34:21;;;;;;;26.52;11.77;;;;;;;5.27;87.30;104242.69;5069424;28;20032;-71
2022/03/19 02:36:47;;;;;;;22.02;11.95;;;;;;;5.24;87.22;104234.06;5069449;28;20032;-71
2022/03/19 02:39:16;;;;;;;21.05;10.52;;;;;;;5.22;87.54;104227.97;5069315;28;20051;-71
2022/03/19 02:41:47;;;;;;;23.50;11.32;;;;;;;5.18;87.42;104229.91;5069285;28;20060;-71
2022/03/19 02:44:13;;;;;;;19.40;10.52;;;;;;;5.19;87.52;104233.44;5068042;28;20037;-71
2022/03/19 02:46:41;;;;;;;23.17;10.63;;;;;;;5.14;87.84;104231.00;5069243;28;20036;-71
2022/03/19 02:49:07;;;;;;;23.38;12.27;;;;;;;5.09;88.14;104218.94;5069242;28;20055;-71
2022/03/19 02:51:34;;;;;;;20.40;10.68;;;;;;;5.14;87.50;104235.44;5069305;28;20488;-71
2022/03/19 02:53:59;;;;;;;20.13;10.73;;;;;;;5.12;88.09;104229.38;5069187;28;20040;-71
2022/03/19 02:56:26;;;;;;;20.95;11.38;;;;;;;5.12;88.34;104229.38;5068939;28;20573;-71
2022/03/19 02:58:51;;;;;;;22.38;12.63;;;;;;;5.11;88.56;104231.16;5069145;28;20072;-71
2022/03/19 03:01:16;;;;;;;20.30;11.32;;;;;;;5.10;88.89;104231.22;5067480;28;20955;-71
2022/03/19 03:03:43;;;;;;;19.60;10.23;;;;;;;5.09;88.24;104229.53;5069085;28;20089;-71
2022/03/19 03:06:08;;;;;;;24.35;10.85;;;;;;;5.11;88.79;104230.28;5069125;28;20021;-71
2022/03/19 03:08:34;;;;;;;19.38;11.10;;;;;;;5.11;88.24;104223.22;5069115;28;20408;-71
2022/03/19 03:10:59;;;;;;;20.98;11.65;;;;;;;5.12;88.68;104222.28;5069051;28;20491;-71
2022/03/19 03:13:24;;;;;;;25.95;11.77;;;;;;;5.12;88.76;104221.44;5069057;28;20434;-71
2022/03/19 03:15:50;;;;;;;20.80;10.55;;;;;;;5.07;88.78;104219.03;5069157;28;20477;-71
2022/03/19 03:18:15;;;;;;;19.70;10.38;;;;;;;5.10;89.17;104221.50;5069341;28;20029;-71
2022/03/19 03:20:41;;;;;;;23.70;10.20;;;;;;;5.09;89.46;104213.66;5071683;28;20131;-71
2022/03/19 03:23:06;;;;;;;19.45;9.55;;;;;;;5.01;89.48;104211.41;5071518;28;20029;-71
2022/03/19 03:25:31;;;;;;;20.35;9.82;;;;;;;5.02;89.76;104219.25;5054615;28;20379;-71
2022/03/19 03:27:57;;;;;;;19.77;9.48;;;;;;;4.98;89.53;104209.75;5072525;28;20145;-71
2022/03/19 03:30:22;;;;;;;18.08;9.50;;;;;;;4.96;89.94;104208.13;5072629;28;20029;-71
2022/03/19 03:32:47;;;;;;;18.55;9.80;;;;;;;4.94;90.01;104213.47;5072529;28;20025;-71
2022/03/19 03:35:13;;;;;;;21.88;10.57;;;;;;;4.89;90.53;104212.84;5072435;28;20450;-71
2022/03/19 03:37:38;;;;;;;19.05;8.82;;;;;;;4.89;90.67;104217.28;5072350;28;20438;-71
2022/03/19 03:40:05;;;;;;;25.67;9.30;;;;;;;4.84;90.89;104210.44;5072449;28;20034;-71
2022/03/19 03:42:30;;;;;;;23.67;11.35;;;;;;;4.85;90.92;104211.31;5072186;28;20029;-71
2022/03/19 03:44:58;;;;;;;20.50;8.80;;;;;;;4.82;90.81;104211.44;5071994;28;20082;-71
2022/03/19 03:47:25;;;;;;;27.17;10.55;;;;;;;4.77;91.58;104214.31;5072058;28;20024;-71
2022/03/19 03:49:52;;;;;;;23.77;10.50;;;;;;;4.75;91.10;104210.91;5072204;28;20047;-71
2022/03/19 03:52:18;;;;;;;20.48;10.00;;;;;;;4.70;90.94;104199.69;5072308;28;20365;-71
2022/03/19 03:54:43;;;;;;;20.38;10.68;;;;;;;4.68;90.65;104200.69;5070541;28;20169;-71
2022/03/19 03:57:08;;;;;;;21.27;9.50;;;;;;;4.63;91.16;104197.41;5072070;28;20464;-71
2022/03/19 03:59:34;;;;;;;21.90;8.68;;;;;;;4.59;91.88;104194.06;5071932;28;20044;-71
2022/03/19 04:01:59;;;;;;;20.83;8.75;;;;;;;4.57;92.09;104185.34;5070991;28;20044;-71
2022/03/19 04:04:25;;;;;;;20.48;10.07;;;;;;;4.58;92.40;104201.16;5070600;28;20102;-71
2022/03/19 04:06:50;;;;;;;21.10;9.38;;;;;;;4.54;92.64;104202.22;5071860;28;20082;-71
2022/03/19 04:09:16;;;;;;;21.75;9.10;;;;;;;4.50;92.69;104198.00;5073717;28;20086;-71
2022/03/19 04:11:41;;;;;;;20.52;9.90;;;;;;;4.48;92.77;104193.72;5071920;28;20032;-71
2022/03/19 04:14:07;;;;;;;20.45;8.40;;;;;;;4.39;92.28;104187.09;5072389;28;20119;-71
2022/03/19 04:16:33;;;;;;;26.50;10.65;;;;;;;4.41;92.83;104194.97;5071721;28;20055;-71
2022/03/19 04:18:58;;;;;;;22.13;10.90;;;;;;;4.38;92.87;104196.81;5071691;28;20386;-71
2022/03/19 04:21:24;;;;;;;16.10;9.48;;;;;;;4.33;92.99;104197.97;5071697;28;20129;-71
2022/03/19 04:23:49;;;;;;;26.65;11.65;;;;;;;4.31;93.27;104190.09;5070337;28;20033;-71
2022/03/19 04:26:14;;;;;;;18.60;9.65;;;;;;;4.32;93.06;104197.13;5070095;28;20103;-71
2022/03/19 04:28:40;;;;;;;22.48;10.02;;;;;;;4.31;92.29;104199.81;5071035;28;20422;-71
2022/03/19 04:31:05;;;;;;;19.05;9.55;;;;;;;4.30;92.75;104190.19;5071448;28;20021;-71
2022/03/19 04:33:31;;;;;;;19.80;10.55;;;;;;;4.30;93.44;104185.75;5071477;28;20127;-71
2022/03/19 04:38:41;;;;;;;17.55;10.07;;;;;;;4.28;93.23;104189.41;5070966;28;20120;-71
2022/03/19 04:41:06;;;;;;;26.05;9.77;;;;;;;4.27;93.45;104188.56;5071237;28;20111;-71
2022/03/19 04:43:32;;;;;;;23.17;10.10;;;;;;;4.25;93.49;104184.28;5069804;28;20103;-71
2022/03/19 04:45:57;;;;;;;31.13;12.35;;;;;;;4.24;93.82;104177.25;5070942;28;20672;-71
2022/03/19 04:48:22;;;;;;;20.58;9.30;;;;;;;4.17;93.70;104166.13;5069452;28;20174;-71
2022/03/19 04:50:48;;;;;;;20.48;10.63;;;;;;;4.17;93.35;104171.41;5070949;28;20036;-71
2022/03/19 04:53:14;;;;;;;23.85;11.10;;;;;;;4.17;93.25;104174.06;5071113;28;20029;-71
2022/03/19 04:55:40;;;;;;;19.65;8.90;;;;;;;4.14;93.76;104176.84;5070686;28;20143;-71
2022/03/19 04:58:07;;;;;;;25.08;11.40;;;;;;;4.16;94.01;104183.75;5070905;28;20112;-71
2022/03/19 05:00:32;;;;;;;22.55;11.57;;;;;;;4.15;93.73;104176.75;5070868;28;20066;-71
2022/03/19 05:02:58;;;;;;;19.35;10.35;;;;;;;4.16;93.99;104177.63;5069572;28;20036;-71
2022/03/19 05:05:24;;;;;;;18.95;9.68;;;;;;;4.05;93.78;104172.00;5070821;28;20037;-71
2022/03/19 05:07:54;;;;;;;22.42;11.15;;;;;;;4.16;93.85;104177.63;5070590;28;20075;-71
2022/03/19 05:13:04;;;;;;;21.30;10.48;;;;;;;4.19;94.06;104193.31;5070812;28;20055;-71
2022/03/19 05:15:30;;;;;;;21.40;10.32;;;;;;;4.16;94.23;104185.53;5070543;28;20095;-71
2022/03/19 05:17:55;;;;;;;18.92;11.07;;;;;;;4.16;93.61;104191.69;5070510;28;20148;-71
2022/03/19 05:20:21;;;;;;;21.30;10.25;;;;;;;4.15;93.09;104189.97;5070506;28;20190;-71
2022/03/19 05:22:46;;;;;;;25.10;10.63;;;;;;;4.15;93.39;104189.13;5070402;28;20045;-71
2022/03/19 05:25:12;;;;;;;24.65;11.88;;;;;;;4.08;93.32;104175.34;5070141;28;20037;-71
2022/03/19 05:27:38;;;;;;;22.67;10.35;;;;;;;4.07;93.78;104189.47;5069855;28;20036;-71
2022/03/19 05:30:04;;;;;;;22.17;10.60;;;;;;;4.05;94.05;104188.69;5070138;28;20059;-71
2022/03/19 05:32:30;;;;;;;27.60;10.68;;;;;;;3.98;94.10;104175.84;5070250;28;20025;-71
2022/03/19 05:34:55;;;;;;;18.83;10.80;;;;;;;4.03;93.53;104190.53;5069975;28;20119;-71
2022/03/19 05:37:21;;;;;;;24.98;10.27;;;;;;;3.98;93.98;104192.53;5070029;28;20024;-71
2022/03/19 05:39:46;;;;;;;23.70;10.60;;;;;;;4.01;93.87;104199.47;5052052;28;20033;-71
2022/03/19 05:42:12;;;;;;;22.95;10.45;;;;;;;3.97;94.41;104198.75;5069403;28;20047;-70
2022/03/19 05:44:38;;;;;;;25.02;12.00;;;;;;;3.94;94.49;104201.53;5069959;28;20070;-71
2022/03/19 05:47:04;;;;;;;23.42;10.63;;;;;;;3.83;94.78;104187.97;5069741;28;20032;-71
2022/03/19 05:49:30;;;;;;;23.33;9.75;;;;;;;3.91;94.10;104206.97;5069973;28;20036;-71
2022/03/19 05:51:57;;;;;;;22.35;11.27;;;;;;;3.87;95.16;104208.03;5069858;28;20093;-71
2022/03/19 05:54:24;;;;;;;21.38;10.60;;;;;;;3.85;94.71;104212.50;5069774;28;20337;-71
2022/03/19 05:56:49;;;;;;;18.45;9.70;;;;;;;3.84;94.96;104211.66;5069611;28;20606;-71
2022/03/19 05:59:15;;;;;;;22.10;11.43;;;;;;;3.86;95.04;104214.25;5070405;28;20128;-71
2022/03/19 06:01:42;;;;;;;29.63;14.32;;;;;;;3.83;95.00;104215.22;5070618;28;20032;-71
2022/03/19 06:04:07;;;;;;;22.98;12.20;;;;;;;3.83;94.70;104206.47;5071436;28;20119;-71
2022/03/19 06:06:33;;;;;;;22.50;11.13;;;;;;;3.79;94.89;104203.09;5069490;28;20556;-71
2022/03/19 06:08:58;;;;;;;24.38;12.10;;;;;;;3.79;95.42;104200.44;5069630;28;20032;-71
2022/03/19 06:11:24;;;;;;;23.13;10.23;;;;;;;3.78;95.38;104204.03;5068383;28;21115;-71
2022/03/19 06:13:49;;;;;;;22.08;10.75;;;;;;;3.85;95.59;104213.38;5068291;28;20032;-71
2022/03/19 06:16:15;;;;;;;26.88;11.88;;;;;;;3.84;95.35;104203.72;5069523;28;20040;-71
2022/03/19 06:18:45;;;;;;;30.23;13.15;;;;;;;3.89;95.56;104209.66;5069643;28;20024;-70
2022/03/19 06:21:11;;;;;;;21.27;10.50;;;;;;;3.88;95.00;104197.41;5068296;28;20028;-71
2022/03/19 06:23:37;;;;;;;22.60;11.48;;;;;;;3.93;94.90;104205.97;5069545;28;20044;-71
2022/03/19 06:26:02;;;;;;;26.42;13.10;;;;;;;3.99;94.71;104209.25;5069328;28;20128;-71
2022/03/19 06:28:27;;;;;;;22.70;11.45;;;;;;;4.07;94.92;104210.59;5068927;28;20033;-71
2022/03/19 06:30:53;;;;;;;21.48;11.43;;;;;;;4.23;94.86;104210.75;5069174;28;20036;-71
2022/03/19 06:33:18;;;;;;;22.13;10.32;;;;;;;4.31;93.82;104203.31;5069492;28;20032;-71
2022/03/19 06:38:29;;;;;;;24.73;9.98;;;;;;;4.48;93.31;104201.66;5068555;28;20097;-71
2022/03/19 06:40:55;;;;;;;22.38;11.25;;;;;;;4.73;92.56;104212.75;5069312;28;20059;-71
2022/03/19 06:43:21;;;;;;;21.10;10.48;;;;;;;4.91;91.75;104211.00;5069135;28;20067;-71
2022/03/19 06:45:46;;;;;;;24.33;11.45;;;;;;;4.95;91.44;104212.56;5069244;28;20115;-71
2022/03/19 06:48:12;;;;;;;20.27;11.05;;;;;;;4.88;91.04;104197.94;5068931;28;20525;-71
2022/03/19 06:50:38;;;;;;;24.45;11.13;;;;;;;5.03;91.04;104215.69;5069089;28;20426;-71
2022/03/19 06:53:04;;;;;;;21.83;9.93;;;;;;;5.01;90.90;104201.66;5068878;28;20045;-71
2022/03/19 06:55:29;;;;;;;17.23;9.63;;;;;;;5.07;90.70;104205.78;5072831;28;20398;-70
2022/03/19 06:57:56;;;;;;;23.88;11.48;;;;;;;5.10;91.07;104202.97;5073144;28;20035;-71
2022/03/19 07:00:22;;;;;;;21.85;11.05;;;;;;;5.21;90.58;104208.59;5073026;28;20020;-70
2022/03/19 07:02:53;;;;;;;22.27;10.30;;;;;;;5.28;90.19;104204.69;5072984;28;20411;-71
2022/03/19 07:05:23;;;;;;;22.77;11.07;;;;;;;5.30;90.47;104196.69;5072997;28;20040;-71
2022/03/19 07:07:49;;;;;;;25.55;10.10;;;;;;;5.38;90.09;104198.94;5072665;28;20047;-71
2022/03/19 07:10:16;;;;;;;24.13;10.55;;;;;;;5.45;89.67;104190.59;5072986;28;20032;-71
2022/03/19 07:12:46;;;;;;;20.38;9.43;;;;;;;5.54;89.42;104197.19;5072957;28;20036;-71
2022/03/19 07:15:13;;;;;;;21.98;10.38;;;;;;;5.60;89.60;104194.19;5072879;28;20017;-70
2022/03/19 07:17:39;;;;;;;18.90;9.60;;;;;;;5.65;88.80;104189.53;5072819;28;20028;-71
2022/03/19 07:20:05;;;;;;;22.98;10.65;;;;;;;5.85;88.25;104195.56;5071296;28;20390;-71
2022/03/19 07:22:54;;;;;;;18.95;9.90;;;;;;;5.97;87.68;104194.06;5072288;28;20032;-71
2022/03/19 07:25:22;;;;;;;21.63;10.15;;;;;;;6.02;87.30;104199.97;5072571;28;20479;-70
2022/03/19 07:27:50;;;;;;;19.48;9.93;;;;;;;6.17;86.80;104206.22;5072437;28;20448;-70
2022/03/19 07:30:15;;;;;;;21.77;10.45;;;;;;;6.24;86.99;104207.59;5072600;28;20047;-70
2022/03/19 07:32:40;;;;;;;18.58;9.65;;;;;;;6.32;86.93;104200.06;5072431;28;20036;-70
2022/03/19 07:35:08;;;;;;;20.52;10.68;;;;;;;6.50;85.71;104200.84;5072413;28;20039;-70
2022/03/19 07:37:34;;;;;;;23.45;9.40;;;;;;;6.59;84.67;104198.50;5072261;28;20025;-70
2022/03/19 07:40:00;;;;;;;15.32;8.27;;;;;;;6.67;83.88;104191.91;5072412;28;20028;-71
2022/03/19 07:42:26;;;;;;;19.67;10.40;;;;;;;6.79;84.06;104202.66;5070970;28;20397;-71
2022/03/19 07:44:51;;;;;;;17.40;8.95;;;;;;;6.83;82.88;104192.72;5072046;28;20032;-71
2022/03/19 07:47:17;;;;;;;17.60;8.38;;;;;;;6.92;82.46;104186.03;5070706;28;20028;-71
2022/03/19 07:49:43;;;;;;;18.77;7.95;;;;;;;7.19;81.63;104188.84;5073375;28;20472;-71
2022/03/19 07:52:09;;;;;;;19.40;9.68;;;;;;;7.46;79.63;104181.00;5071848;28;20043;-71
2022/03/19 07:54:36;;;;;;;17.00;8.32;;;;;;;7.70;78.58;104181.28;5072880;28;20528;-70
2022/03/19 07:57:03;;;;;;;16.92;8.30;;;;;;;7.81;77.54;104181.50;5070677;28;20063;-71
2022/03/19 07:59:28;;;;;;;16.75;6.72;;;;;;;7.90;77.54;104183.56;5071842;28;20032;-71
2022/03/19 08:01:54;;;;;;;19.48;9.50;;;;;;;7.92;76.53;104183.47;5071852;28;20042;-71
2022/03/19 08:04:19;;;;;;;16.08;7.65;;;;;;;7.89;77.06;104179.19;5071352;28;20028;-70
2022/03/19 08:06:45;;;;;;;15.23;7.93;;;;;;;7.86;76.25;104191.84;5071618;28;20064;-71
2022/03/19 08:09:10;;;;;;;18.88;7.35;;;;;;;7.84;76.48;104183.94;5070210;28;20474;-71
2022/03/19 08:11:37;;;;;;;15.50;7.10;;;;;;;7.90;76.07;104180.06;5071705;28;20028;-70
2022/03/19 08:14:03;;;;;;;19.25;6.32;;;;;;;8.11;73.98;104191.97;5071694;28;20078;-71
2022/03/19 08:16:30;;;;;;;20.92;8.90;;;;;;;8.07;73.57;104195.78;5071078;28;20070;-71
2022/03/19 08:18:56;;;;;;;17.95;6.28;;;;;;;8.11;73.59;104196.44;5071173;28;20028;-71
2022/03/19 08:21:21;;;;;;;13.27;5.90;;;;;;;8.37;73.68;104199.25;5071128;28;20629;-71
2022/03/19 08:23:47;;;;;;;13.93;6.63;;;;;;;8.54;71.98;104199.00;5071253;28;20028;-71
2022/03/19 08:26:12;;;;;;;13.57;6.22;;;;;;;8.51;71.30;104191.22;5071252;28;20055;-71
2022/03/19 08:28:38;;;;;;;14.35;7.65;;;;;;;8.39;71.09;104184.03;5071125;28;20029;-71
2022/03/19 08:31:03;;;;;;;11.52;6.13;;;;;;;8.30;72.25;104167.69;5071274;28;20392;-69
2022/03/19 08:33:28;;;;;;;17.30;7.97;;;;;;;8.41;71.44;104187.47;5071179;28;20036;-70
2022/03/19 08:35:54;;;;;;;18.75;6.95;;;;;;;8.27;71.35;104188.34;5070717;28;20028;-70
2022/03/19 08:41:04;;;;;;;12.43;6.65;;;;;;;8.39;71.21;104192.91;5071319;28;20043;-70
2022/03/19 08:43:29;;;;;;;16.77;6.47;;;;;;;8.29;70.83;104197.06;5071201;28;20033;-71
2022/03/19 08:45:55;;;;;;;20.50;7.63;;;;;;;8.21;71.06;104186.94;5071055;28;20063;-70
2022/03/19 08:48:20;;;;;;;29.35;12.27;;;;;;;8.25;71.81;104190.22;5070793;28;20357;-70
2022/03/19 08:50:46;;;;;;;18.80;10.55;;;;;;;8.32;71.54;104183.56;5070898;28;20040;-70
2022/03/19 08:53:13;;;;;;;18.35;9.02;;;;;;;8.39;71.25;104192.91;5069179;28;20024;-70
2022/03/19 08:55:38;;;;;;;23.48;12.93;;;;;;;8.45;71.62;104199.63;5070754;28;20542;-70
2022/03/19 08:58:04;;;;;;;18.30;7.40;;;;;;;8.49;71.23;104195.81;5070977;28;20044;-70
2022/03/19 09:00:30;;;;;;;17.40;8.50;;;;;;;8.56;71.08;104189.13;5070813;28;20028;-70
2022/03/19 09:02:58;;;;;;;12.57;6.82;;;;;;;8.57;71.03;104198.81;5070656;28;20376;-70
2022/03/19 09:05:24;;;;;;;14.93;6.78;;;;;;;8.54;70.57;104177.72;5070305;28;20035;-71
2022/03/19 09:07:49;;;;;;;19.50;11.77;;;;;;;8.53;70.57;104170.72;5070390;28;20024;-70
2022/03/19 09:10:15;;;;;;;18.50;9.75;;;;;;;8.70;70.56;104186.41;5070427;28;20502;-70
2022/03/19 09:12:41;;;;;;;25.38;11.18;;;;;;;8.84;70.83;104185.50;5070448;28;20033;-70
2022/03/19 09:15:09;;;;;;;22.55;10.90;;;;;;;8.88;68.84;104170.16;5069828;28;20108;-70
2022/03/19 09:17:34;;;;;;;16.98;6.68;;;;;;;8.91;67.97;104177.97;5070345;28;20527;-70
2022/03/19 09:20:00;;;;;;;13.27;6.55;;;;;;;8.92;68.34;104169.00;5070526;28;20128;-70
2022/03/19 09:22:25;;;;;;;15.10;6.88;;;;;;;9.02;68.77;104175.41;5070470;28;20051;-70
2022/03/19 09:24:51;;;;;;;20.00;9.73;;;;;;;9.11;67.23;104172.09;5070187;28;20040;-70
2022/03/19 09:27:16;;;;;;;15.35;7.07;;;;;;;9.13;67.96;104169.34;5070120;28;20093;-70
2022/03/19 09:29:42;;;;;;;17.48;11.70;;;;;;;9.25;67.67;104170.31;5070190;28;20033;-70
2022/03/19 09:32:09;;;;;;;14.75;6.88;;;;;;;9.30;66.74;104149.53;5068634;28;20548;-70
2022/03/19 09:34:35;;;;;;;15.82;7.00;;;;;;;9.52;66.61;104164.88;5070204;28;20032;-70
2022/03/19 09:37:01;;;;;;;13.35;6.38;;;;;;;9.68;65.82;104159.31;5070159;28;20032;-70
2022/03/19 09:39:27;;;;;;;15.60;7.50;;;;;;;9.63;63.40;104152.50;5068973;28;20028;-70
2022/03/19 09:41:54;;;;;;;27.75;17.17;;;;;;;9.60;63.34;104151.88;5071971;28;20024;-70
2022/03/19 09:44:24;;;;;;;14.65;6.63;;;;;;;9.60;63.31;104149.19;5071447;28;20024;-71
2022/03/19 09:46:49;;;;;;;17.60;6.15;;;;;;;9.57;62.00;104144.09;5069772;28;20032;-70
2022/03/19 09:49:15;;;;;;;9.45;4.75;;;;;;;9.61;61.92;104143.75;5069687;28;20364;-71
2022/03/19 09:51:44;;;;;;;18.83;7.53;;;;;;;9.69;62.42;104131.69;5069842;28;20028;-70
2022/03/19 09:54:10;;;;;;;11.80;6.15;;;;;;;9.80;61.44;104142.47;5069482;28;20122;-70
2022/03/19 09:56:36;;;;;;;10.60;4.28;;;;;;;9.85;60.92;104134.94;5069216;28;20052;-71
2022/03/19 09:59:02;;;;;;;13.27;5.78;;;;;;;9.94;60.45;104155.63;5069792;28;20472;-71
2022/03/19 10:01:31;;;;;;;9.65;5.45;;;;;;;9.93;57.66;104134.41;5069358;28;20068;-71
2022/03/19 10:04:01;;;;;;;12.18;5.18;;;;;;;10.01;57.94;104129.38;5069207;28;20044;-71
2022/03/19 10:09:17;;;;;;;9.35;4.00;;;;;;;10.17;56.59;104126.44;5069902;28;20102;-71
2022/03/19 10:11:48;;;;;;;11.75;4.90;;;;;;;10.24;57.14;104112.53;5069524;28;20021;-71
2022/03/19 10:14:19;;;;;;;11.50;5.65;;;;;;;10.35;55.65;104110.91;5069613;28;20058;-71
2022/03/19 10:16:48;;;;;;;12.65;5.25;;;;;;;10.35;55.62;104102.88;5069509;28;20043;-71
2022/03/19 10:19:14;;;;;;;17.52;6.30;;;;;;;10.38;54.37;104097.34;5069432;28;20028;-70
2022/03/19 10:21:42;;;;;;;10.95;4.07;;;;;;;10.43;54.32;104098.69;5069542;28;20036;-71
2022/03/19 10:24:24;;;;;;;19.02;5.43;;;;;;;10.48;53.60;104107.22;5069330;28;20043;-71
2022/03/19 10:26:49;;;;;;;9.35;4.45;;;;;;;10.53;52.84;104091.72;5069120;28;20056;-71
2022/03/19 10:29:17;;;;;;;8.63;3.42;;;;;;;10.52;51.81;104087.31;5069349;28;20030;-71
2022/03/19 10:31:44;;;;;;;12.00;4.55;;;;;;;10.55;52.28;104086.22;5067864;28;20082;-71
2022/03/19 10:34:10;;;;;;;6.40;3.50;;;;;;;10.55;51.96;104077.38;5069144;28;20056;-71
2022/03/19 10:36:44;;;;;;;12.43;4.75;;;;;;;10.61;52.25;104069.78;5069216;28;20037;-71
2022/03/19 10:39:12;;;;;;;6.07;3.55;;;;;;;10.74;52.17;104075.00;5068907;28;20028;-70
2022/03/19 10:41:38;;;;;;;9.50;5.45;;;;;;;10.82;50.71;104058.38;5069218;28;20036;-71
2022/03/19 10:44:19;;;;;;;12.23;3.50;;;;;;;10.92;49.01;104051.34;5069323;28;20368;-71
2022/03/19 10:47:04;;;;;;;6.63;3.65;;;;;;;10.98;46.97;104042.88;5069285;28;20036;-71
2022/03/19 10:49:30;;;;;;;8.77;3.35;;;;;;;11.18;47.12;104058.16;5069253;28;20063;-71
2022/03/19 10:51:58;;;;;;;11.02;3.72;;;;;;;11.20;47.17;104058.06;5069122;28;20028;-71
2022/03/19 10:54:23;;;;;;;7.50;3.60;;;;;;;11.20;46.70;104044.69;5069038;28;20531;-71
2022/03/19 10:56:51;;;;;;;13.77;3.75;;;;;;;11.28;45.77;104044.09;5068425;28;20131;-71
2022/03/19 10:59:17;;;;;;;10.00;3.65;;;;;;;11.30;45.64;104047.50;5068835;28;20032;-71
2022/03/19 11:01:43;;;;;;;6.38;2.90;;;;;;;11.33;44.01;104034.72;5067745;28;20063;-71
2022/03/19 11:04:11;;;;;;;8.52;3.60;;;;;;;11.29;43.96;104032.41;5068981;28;20553;-71
2022/03/19 11:06:42;;;;;;;8.43;2.75;;;;;;;11.39;42.80;104026.19;5069092;28;20038;-71
2022/03/19 11:09:10;;;;;;;10.95;3.67;;;;;;;11.45;43.58;104030.22;5068827;28;20502;-71
2022/03/19 11:11:55;;;;;;;11.40;2.75;;;;;;;11.58;41.86;104024.69;5068813;28;20051;-71
2022/03/19 11:14:23;;;;;;;8.35;2.97;;;;;;;11.61;41.10;104030.66;5068916;28;20036;-71
2022/03/19 11:17:24;;;;;;;5.70;2.80;;;;;;;11.68;43.21;104014.97;5068785;28;20028;-71
2022/03/19 11:19:55;;;;;;;7.53;2.90;;;;;;;11.71;39.51;103996.00;5066274;28;20093;-72
2022/03/19 11:22:21;;;;;;;9.35;2.70;;;;;;;11.68;40.48;104000.75;5068880;28;20135;-71
2022/03/19 11:25:01;;;;;;;6.05;2.75;;;;;;;11.73;41.26;104003.91;5068259;28;20040;-71
2022/03/19 11:27:29;;;;;;;5.25;2.95;;;;;;;11.64;39.07;104002.84;5068415;28;20052;-71
2022/03/19 11:29:59;;;;;;;8.90;3.35;;;;;;;11.66;39.51;103997.34;5068851;28;20399;-71
2022/03/19 11:32:24;;;;;;;7.50;3.00;;;;;;;11.72;38.99;103980.81;5070291;28;20075;-71
2022/03/19 11:34:56;;;;;;;7.40;2.85;;;;;;;11.76;37.85;103990.25;5068748;28;20064;-71
2022/03/19 11:37:22;;;;;;;8.38;4.00;;;;;;;11.76;38.17;103980.44;5068895;28;20087;-71
2022/03/19 11:40:28;;;;;;;5.20;2.17;;;;;;;11.75;37.50;103983.22;5070611;28;20028;-71